createdAt,value
2018-09-21T00:01:27.551Z,5.30
2018-09-21T00:04:02.173Z,5.20
2018-09-21T00:06:31.654Z,6.37
2018-09-21T00:09:01.153Z,6.13
2018-09-21T00:11:30.993Z,6.90
2018-09-21T00:14:00.399Z,6.93
2018-09-21T00:16:29.896Z,6.73
2018-09-21T00:18:59.662Z,6.93
2018-09-21T00:21:29.131Z,6.30
2018-09-21T00:23:58.408Z,6.50
2018-09-21T00:26:27.873Z,6.43
2018-09-21T00:28:57.477Z,6.87
2018-09-21T00:31:26.719Z,6.63
2018-09-21T00:33:56.307Z,6.20
2018-09-21T00:36:25.620Z,6.97
2018-09-21T00:38:54.978Z,7.47
2018-09-21T00:41:24.815Z,7.17
2018-09-21T00:43:54.145Z,6.87
2018-09-21T00:46:23.621Z,7.60
2018-09-21T00:48:53.209Z,7.40
2018-09-21T00:51:23.238Z,6.97
2018-09-21T00:53:53.082Z,8.17
2018-09-21T00:56:22.582Z,7.57
2018-09-21T00:58:52.085Z,7.90
2018-09-21T01:01:21.958Z,8.40
2018-09-21T01:03:51.792Z,8.43
2018-09-21T01:06:21.660Z,7.70
2018-09-21T01:08:51.226Z,8.20
2018-09-21T01:11:20.820Z,8.30
2018-09-21T01:13:50.343Z,7.90
2018-09-21T01:16:19.714Z,8.87
2018-09-21T01:18:49.226Z,9.50
2018-09-21T01:21:19.076Z,7.97
2018-09-21T01:23:48.327Z,8.60
2018-09-21T01:26:18.073Z,8.50
2018-09-21T01:28:47.472Z,9.00
2018-09-21T01:31:17.216Z,8.90
2018-09-21T01:33:46.631Z,9.07
2018-09-21T01:36:16.124Z,9.37
2018-09-21T01:38:45.341Z,9.57
2018-09-21T01:41:14.786Z,10.00
2018-09-21T01:43:44.612Z,9.27
2018-09-21T01:46:14.029Z,9.83
2018-09-21T01:48:43.223Z,9.97
2018-09-21T01:51:12.770Z,9.87
2018-09-21T01:53:42.297Z,10.70
2018-09-21T01:56:11.813Z,10.77
2018-09-21T01:58:41.256Z,10.53
2018-09-21T02:01:10.446Z,10.77
2018-09-21T02:03:39.850Z,9.90
2018-09-21T02:06:09.904Z,10.73
2018-09-21T02:08:39.277Z,10.53
2018-09-21T02:11:09.046Z,10.37
2018-09-21T02:13:38.752Z,10.03
2018-09-21T02:16:08.306Z,10.30
2018-09-21T02:18:37.863Z,9.40
2018-09-21T02:21:07.533Z,8.97
2018-09-21T02:23:37.068Z,8.73
2018-09-21T02:26:06.711Z,8.30
2018-09-21T02:28:36.465Z,8.37
2018-09-21T02:31:05.969Z,8.20
2018-09-21T02:33:35.540Z,7.80
2018-09-21T02:36:05.180Z,7.50
2018-09-21T02:38:34.745Z,7.83
2018-09-21T02:41:04.243Z,8.57
2018-09-21T02:43:33.720Z,7.37
2018-09-21T02:46:03.210Z,8.53
2018-09-21T02:48:32.653Z,7.93
2018-09-21T02:51:02.543Z,7.23
2018-09-21T02:53:32.077Z,7.47
2018-09-21T02:56:01.682Z,8.03
2018-09-21T02:58:31.320Z,7.70
2018-09-21T03:01:00.702Z,8.50
2018-09-21T03:03:30.006Z,9.23
2018-09-21T03:05:59.488Z,7.40
2018-09-21T03:08:28.891Z,7.90
2018-09-21T03:10:58.705Z,7.87
2018-09-21T03:13:28.302Z,8.10
2018-09-21T03:15:57.826Z,7.57
2018-09-21T03:18:27.089Z,7.17
2018-09-21T03:20:56.618Z,7.43
2018-09-21T03:23:26.007Z,7.47
2018-09-21T03:25:55.404Z,7.77
2018-09-21T03:28:25.437Z,7.50
2018-09-21T03:30:54.788Z,7.50
2018-09-21T03:33:24.439Z,7.27
2018-09-21T03:35:54.120Z,7.27
2018-09-21T03:38:23.478Z,7.70
2018-09-21T03:40:52.959Z,7.13
2018-09-21T03:43:22.933Z,7.20
2018-09-21T03:45:52.507Z,7.30
2018-09-21T03:48:22.563Z,7.13
2018-09-21T03:50:52.301Z,7.33
2018-09-21T03:53:22.117Z,7.13
2018-09-21T03:55:51.646Z,6.80
2018-09-21T03:58:21.509Z,8.23
2018-09-21T04:00:51.001Z,6.77
2018-09-21T04:03:20.138Z,6.90
2018-09-21T04:05:49.745Z,6.40
2018-09-21T04:08:19.280Z,6.83
2018-09-21T04:10:48.562Z,7.20
2018-09-21T04:13:18.137Z,6.63
2018-09-21T04:15:47.569Z,6.43
2018-09-21T04:18:16.896Z,6.40
2018-09-21T04:20:46.513Z,6.77
2018-09-21T04:23:15.843Z,6.57
2018-09-21T04:25:45.347Z,6.53
2018-09-21T04:28:15.328Z,6.70
2018-09-21T04:30:45.110Z,6.43
2018-09-21T04:33:14.642Z,6.03
2018-09-21T04:35:44.253Z,6.20
2018-09-21T04:38:13.606Z,6.07
2018-09-21T04:40:42.879Z,6.03
2018-09-21T04:43:12.638Z,5.40
2018-09-21T04:45:42.376Z,6.03
2018-09-21T04:48:11.620Z,6.33
2018-09-21T04:50:41.488Z,6.00
2018-09-21T04:53:11.198Z,5.83
2018-09-21T04:55:40.660Z,6.27
2018-09-21T04:58:10.289Z,6.10
2018-09-21T05:00:40.582Z,6.00
2018-09-21T05:03:09.833Z,5.90
2018-09-21T05:05:39.531Z,6.17
2018-09-21T05:08:08.948Z,6.07
2018-09-21T05:10:38.177Z,5.47
2018-09-21T05:13:07.895Z,5.67
2018-09-21T05:15:37.598Z,5.90
2018-09-21T05:18:07.200Z,5.83
2018-09-21T05:20:36.839Z,5.43
2018-09-21T05:23:06.084Z,5.13
2018-09-21T05:25:35.687Z,5.40
2018-09-21T05:28:06.104Z,5.47
2018-09-21T05:30:35.561Z,5.10
2018-09-21T05:33:06.103Z,5.83
2018-09-21T05:35:35.963Z,4.83
2018-09-21T05:38:05.648Z,4.83
2018-09-21T05:40:35.068Z,5.23
2018-09-21T05:43:04.893Z,5.63
2018-09-21T05:45:34.242Z,5.27
2018-09-21T05:48:03.721Z,5.00
2018-09-21T05:50:33.303Z,4.70
2018-09-21T05:53:03.405Z,5.40
2018-09-21T05:55:32.640Z,4.87
2018-09-21T05:58:02.142Z,5.53
2018-09-21T06:00:31.347Z,5.07
2018-09-21T06:03:00.694Z,5.40
2018-09-21T06:05:30.052Z,5.33
2018-09-21T06:07:59.447Z,5.33
2018-09-21T06:10:28.893Z,5.70
2018-09-21T06:12:58.450Z,5.67
2018-09-21T06:15:27.930Z,5.37
2018-09-21T06:17:57.387Z,5.20
2018-09-21T06:20:27.417Z,4.80
2018-09-21T06:22:57.398Z,4.77
2018-09-21T06:25:26.671Z,5.43
2018-09-21T06:27:56.596Z,4.83
2018-09-21T06:30:25.938Z,5.37
2018-09-21T06:32:55.558Z,4.80
2018-09-21T06:35:25.241Z,4.77
2018-09-21T06:37:54.696Z,5.10
2018-09-21T06:40:24.958Z,5.10
2018-09-21T06:42:54.724Z,5.60
2018-09-21T06:45:24.459Z,5.13
2018-09-21T06:47:53.894Z,4.93
2018-09-21T06:50:23.555Z,5.63
2018-09-21T06:52:52.914Z,5.30
2018-09-21T06:55:22.497Z,5.17
2018-09-21T06:57:52.452Z,5.57
2018-09-21T07:00:23.043Z,5.37
2018-09-21T07:02:52.817Z,5.53
2018-09-21T07:05:23.018Z,5.23
2018-09-21T07:07:52.912Z,5.20
2018-09-21T07:10:22.403Z,4.90
2018-09-21T07:12:52.546Z,5.40
2018-09-21T07:15:23.257Z,5.63
2018-09-21T07:17:53.209Z,5.20
2018-09-21T07:20:22.773Z,5.83
2018-09-21T07:22:52.548Z,5.97
2018-09-21T07:25:22.433Z,6.00
2018-09-21T07:27:52.957Z,5.63
2018-09-21T07:30:22.745Z,6.03
2018-09-21T07:32:52.387Z,5.70
2018-09-21T07:35:22.431Z,6.13
2018-09-21T07:37:52.298Z,6.30
2018-09-21T07:40:22.094Z,5.97
2018-09-21T07:42:51.767Z,5.87
2018-09-21T07:45:21.691Z,6.13
2018-09-21T07:47:51.304Z,6.33
2018-09-21T07:50:20.890Z,5.90
2018-09-21T07:52:50.898Z,6.50
2018-09-21T07:55:20.351Z,6.17
2018-09-21T07:57:49.995Z,5.67
2018-09-21T08:00:19.737Z,5.57
2018-09-21T08:02:49.348Z,6.07
2018-09-21T08:05:23.426Z,6.47
2018-09-21T08:07:53.223Z,5.33
2018-09-21T08:10:22.876Z,6.13
2018-09-21T08:12:52.486Z,5.20
2018-09-21T08:15:22.057Z,6.13
2018-09-21T08:17:52.165Z,6.13
2018-09-21T08:20:21.632Z,7.37
2018-09-21T08:22:51.339Z,5.83
2018-09-21T08:25:21.320Z,5.80
2018-09-21T08:27:51.098Z,6.07
2018-09-21T08:30:21.084Z,6.37
2018-09-21T08:32:51.516Z,6.20
2018-09-21T08:35:21.709Z,5.33
2018-09-21T08:37:51.630Z,5.20
2018-09-21T08:40:21.529Z,5.63
2018-09-21T08:42:51.552Z,6.07
2018-09-21T08:45:21.569Z,5.13
2018-09-21T08:47:57.044Z,5.07
2018-09-21T08:50:26.799Z,5.40
2018-09-21T08:52:56.378Z,5.10
2018-09-21T08:55:25.952Z,5.80
2018-09-21T08:57:55.930Z,5.20
2018-09-21T09:00:25.346Z,5.50
2018-09-21T09:02:54.685Z,5.30
2018-09-21T09:05:26.375Z,5.37
2018-09-21T09:07:55.819Z,5.03
2018-09-21T09:10:25.509Z,5.90
2018-09-21T09:12:55.818Z,5.13
2018-09-21T09:15:25.471Z,5.67
2018-09-21T09:17:55.002Z,5.40
2018-09-21T09:20:24.579Z,5.37
2018-09-21T09:22:54.204Z,4.60
2018-09-21T09:25:23.605Z,5.10
2018-09-21T09:27:53.335Z,5.50
2018-09-21T09:30:23.687Z,5.33
2018-09-21T09:32:53.248Z,5.23
2018-09-21T09:35:22.953Z,5.27
2018-09-21T09:37:52.860Z,5.23
2018-09-21T09:40:22.916Z,5.50
2018-09-21T09:42:53.391Z,5.10
2018-09-21T09:45:25.015Z,5.03
2018-09-21T09:48:15.043Z,5.57
2018-09-21T09:50:44.582Z,5.40
2018-09-21T09:53:14.385Z,5.40
2018-09-21T09:55:43.937Z,5.27
2018-09-21T09:58:13.817Z,5.33
2018-09-21T10:00:48.390Z,5.60
2018-09-21T10:03:20.242Z,5.77
2018-09-21T10:05:50.133Z,5.53
2018-09-21T10:08:19.710Z,5.93
2018-09-21T10:10:49.559Z,5.40
2018-09-21T10:13:18.960Z,5.63
2018-09-21T10:15:48.322Z,5.17
2018-09-21T10:18:19.149Z,5.73
2018-09-21T10:20:48.787Z,5.47
2018-09-21T10:23:18.499Z,5.27
2018-09-21T10:25:48.343Z,5.43
2018-09-21T10:28:17.657Z,5.27
2018-09-21T10:30:47.235Z,5.37
2018-09-21T10:33:17.330Z,5.67
2018-09-21T10:35:46.709Z,5.67
2018-09-21T10:38:15.878Z,5.83
2018-09-21T10:40:45.252Z,5.90
2018-09-21T10:43:14.966Z,5.70
2018-09-21T10:45:44.782Z,5.10
2018-09-21T10:48:14.559Z,6.03
2018-09-21T10:50:44.245Z,5.50
2018-09-21T10:53:13.425Z,5.70
2018-09-21T10:55:49.455Z,5.07
2018-09-21T10:58:18.802Z,5.37
2018-09-21T11:00:48.198Z,5.33
2018-09-21T11:03:17.889Z,5.13
2018-09-21T11:05:47.020Z,5.37
2018-09-21T11:08:16.325Z,5.13
2018-09-21T11:10:46.124Z,5.40
2018-09-21T11:13:15.315Z,6.30
2018-09-21T11:15:44.994Z,5.37
2018-09-21T11:18:14.471Z,5.57
2018-09-21T11:20:44.233Z,5.70
2018-09-21T11:23:13.701Z,6.17
2018-09-21T11:25:43.460Z,5.60
2018-09-21T11:28:13.163Z,6.20
2018-09-21T11:30:42.385Z,6.07
2018-09-21T11:33:12.088Z,5.53
2018-09-21T11:35:41.822Z,6.20
2018-09-21T11:38:11.387Z,6.50
2018-09-21T11:40:41.617Z,7.33
2018-09-21T11:43:11.310Z,7.07
2018-09-21T11:45:40.872Z,6.73
2018-09-21T11:48:10.277Z,7.17
2018-09-21T11:50:39.680Z,8.10
2018-09-21T11:53:09.389Z,7.83
2018-09-21T11:55:39.118Z,8.27
2018-09-21T11:58:09.814Z,7.60
2018-09-21T12:00:39.499Z,7.43
2018-09-21T12:03:09.219Z,9.10
2018-09-21T12:05:39.186Z,7.87
2018-09-21T12:08:08.805Z,9.40
2018-09-21T12:10:38.705Z,9.87
2018-09-21T12:13:08.027Z,10.67
2018-09-21T12:15:37.963Z,10.53
2018-09-21T12:18:07.557Z,11.10
2018-09-21T12:20:37.299Z,10.83
2018-09-21T12:23:07.605Z,11.13
2018-09-21T12:25:37.021Z,8.17
2018-09-21T12:28:07.526Z,8.07
2018-09-21T12:30:37.456Z,7.23
2018-09-21T12:33:07.304Z,6.53
2018-09-21T12:35:37.008Z,4.60
2018-09-21T12:38:06.715Z,5.70
2018-09-21T12:40:36.369Z,4.77
2018-09-21T12:43:05.884Z,4.97
2018-09-21T12:45:35.615Z,5.33
2018-09-21T12:48:05.480Z,4.37
2018-09-21T12:50:34.685Z,4.67
2018-09-21T12:53:04.200Z,5.07
2018-09-21T12:55:33.663Z,4.47
2018-09-21T12:58:03.178Z,5.77
2018-09-21T13:00:37.361Z,5.40
2018-09-21T13:03:07.137Z,5.40
2018-09-21T13:05:36.505Z,4.90
2018-09-21T13:08:06.259Z,5.43
2018-09-21T13:10:35.891Z,5.20
2018-09-21T13:13:05.524Z,4.97
2018-09-21T13:15:34.940Z,4.37
2018-09-21T13:18:04.789Z,5.47
2018-09-21T13:20:34.288Z,4.60
2018-09-21T13:23:04.123Z,5.10
2018-09-21T13:25:34.187Z,4.63
2018-09-21T13:28:03.880Z,4.43
2018-09-21T13:30:33.370Z,4.63
2018-09-21T13:33:03.250Z,5.47
2018-09-21T13:35:32.862Z,5.10
2018-09-21T13:38:02.358Z,4.73
2018-09-21T13:40:32.162Z,4.97
2018-09-21T13:43:01.813Z,4.10
2018-09-21T13:45:31.240Z,4.00
2018-09-21T13:48:00.883Z,5.03
2018-09-21T13:50:30.857Z,4.67
2018-09-21T13:53:00.325Z,4.23
2018-09-21T13:55:29.738Z,3.63
2018-09-21T13:58:01.343Z,4.37
2018-09-21T14:00:31.764Z,3.50
2018-09-21T14:03:01.267Z,3.50
2018-09-21T14:05:31.794Z,3.70
2018-09-21T14:08:01.459Z,3.03
2018-09-21T14:10:31.160Z,3.17
2018-09-21T14:13:00.279Z,3.97
2018-09-21T14:15:30.726Z,5.07
2018-09-21T14:17:59.920Z,3.70
2018-09-21T14:20:29.426Z,3.80
2018-09-21T14:22:59.036Z,2.90
2018-09-21T14:25:28.173Z,2.70
2018-09-21T14:27:57.398Z,3.00
2018-09-21T14:30:27.292Z,2.40
2018-09-21T14:32:56.756Z,2.80
2018-09-21T14:35:26.310Z,2.27
2018-09-21T14:37:56.106Z,3.77
2018-09-21T14:40:25.916Z,3.23
2018-09-21T14:42:55.365Z,1.93
2018-09-21T14:45:25.514Z,2.53
2018-09-21T14:47:55.086Z,2.10
2018-09-21T14:50:25.041Z,2.57
2018-09-21T14:52:55.810Z,1.63
2018-09-21T14:55:25.918Z,2.37
2018-09-21T14:57:55.782Z,2.00
2018-09-21T15:00:25.796Z,2.47
2018-09-21T15:02:55.250Z,2.30
2018-09-21T15:05:25.110Z,2.33
2018-09-21T15:07:55.034Z,2.00
2018-09-21T15:10:26.180Z,2.40
2018-09-21T15:12:55.881Z,2.00
2018-09-21T15:15:25.472Z,1.97
2018-09-21T15:17:55.406Z,1.80
2018-09-21T15:20:26.073Z,1.90
2018-09-21T15:22:55.194Z,2.43
2018-09-21T15:25:24.801Z,2.10
2018-09-21T15:27:54.843Z,2.17
2018-09-21T15:30:24.404Z,2.50
2018-09-21T15:32:54.033Z,1.93
2018-09-21T15:35:24.015Z,2.07
2018-09-21T15:37:54.138Z,2.50
2018-09-21T15:40:26.201Z,2.33
2018-09-21T15:42:56.321Z,2.43
2018-09-21T15:45:25.788Z,2.57
2018-09-21T15:47:55.613Z,2.17
2018-09-21T15:50:25.115Z,2.63
2018-09-21T15:52:54.449Z,1.97
2018-09-21T15:55:24.939Z,2.70
2018-09-21T15:57:54.839Z,2.13
2018-09-21T16:00:24.329Z,2.50
2018-09-21T16:02:54.287Z,2.23
2018-09-21T16:05:24.444Z,2.80
2018-09-21T16:07:54.089Z,2.10
2018-09-21T16:10:24.009Z,2.80
2018-09-21T16:12:53.822Z,2.33
2018-09-21T16:15:23.395Z,2.13
2018-09-21T16:17:53.319Z,2.30
2018-09-21T16:20:22.699Z,2.07
2018-09-21T16:22:52.668Z,3.33
2018-09-21T16:25:22.583Z,2.77
2018-09-21T16:27:52.341Z,2.80
2018-09-21T16:30:22.633Z,3.40
2018-09-21T16:32:52.631Z,3.17
2018-09-21T16:35:22.436Z,3.10
2018-09-21T16:37:52.420Z,2.73
2018-09-21T16:40:22.328Z,2.97
2018-09-21T16:42:51.641Z,3.17
2018-09-21T16:45:21.536Z,3.27
2018-09-21T16:47:51.613Z,3.00
2018-09-21T16:50:21.480Z,3.50
2018-09-21T16:52:51.138Z,3.33
2018-09-21T16:55:21.761Z,3.10
2018-09-21T16:57:51.513Z,2.63
2018-09-21T17:00:22.425Z,2.73
2018-09-21T17:02:52.714Z,2.00
2018-09-21T17:05:22.957Z,3.03
2018-09-21T17:07:53.766Z,2.93
2018-09-21T17:10:23.582Z,2.50
2018-09-21T17:12:53.157Z,2.67
2018-09-21T17:15:23.374Z,2.63
2018-09-21T17:17:53.212Z,2.40
2018-09-21T17:20:22.831Z,2.73
2018-09-21T17:22:52.639Z,2.73
2018-09-21T17:25:22.978Z,2.17
2018-09-21T17:27:52.533Z,2.13
2018-09-21T17:30:23.413Z,1.93
2018-09-21T17:32:53.026Z,2.73
2018-09-21T17:35:22.610Z,2.43
2018-09-21T17:37:52.881Z,3.97
2018-09-21T17:40:22.755Z,3.17
2018-09-21T17:42:53.389Z,2.70
2018-09-21T17:45:23.903Z,3.03
2018-09-21T17:47:53.779Z,2.67
2018-09-21T17:50:23.986Z,3.43
2018-09-21T17:52:53.846Z,4.07
2018-09-21T17:55:23.885Z,3.90
2018-09-21T17:57:53.494Z,2.87
2018-09-21T18:00:23.588Z,3.37
2018-09-21T18:02:53.472Z,2.70
2018-09-21T18:05:23.963Z,2.50
2018-09-21T18:07:53.906Z,3.13
2018-09-21T18:10:24.243Z,4.47
2018-09-21T18:12:54.075Z,3.30
2018-09-21T18:15:24.376Z,3.60
2018-09-21T18:17:54.537Z,2.73
2018-09-21T18:20:25.381Z,3.47
2018-09-21T18:22:55.702Z,3.00
2018-09-21T18:25:25.336Z,3.77
2018-09-21T18:27:55.499Z,3.43
2018-09-21T18:30:24.794Z,3.80
2018-09-21T18:32:55.054Z,3.87
2018-09-21T18:35:24.837Z,3.63
2018-09-21T18:37:55.523Z,3.37
2018-09-21T18:40:25.497Z,3.13
2018-09-21T18:42:55.326Z,2.40
2018-09-21T18:45:26.010Z,3.30
2018-09-21T18:47:56.038Z,3.23
2018-09-21T18:50:25.809Z,2.90
2018-09-21T18:52:55.102Z,3.43
2018-09-21T18:55:25.323Z,3.70
2018-09-21T18:57:55.051Z,2.90
2018-09-21T19:00:25.030Z,2.60
2018-09-21T19:02:54.542Z,1.67
2018-09-21T19:05:24.578Z,2.60
2018-09-21T19:07:54.196Z,1.70
2018-09-21T19:10:24.385Z,2.10
2018-09-21T19:12:54.622Z,2.50
2018-09-21T19:15:24.570Z,2.20
2018-09-21T19:17:54.163Z,2.77
2018-09-21T19:20:24.070Z,1.80
2018-09-21T19:22:53.990Z,2.60
2018-09-21T19:25:24.348Z,2.20
2018-09-21T19:27:54.281Z,2.40
2018-09-21T19:30:24.401Z,1.60
2018-09-21T19:32:54.209Z,2.27
2018-09-21T19:35:24.925Z,2.20
2018-09-21T19:37:54.714Z,1.93
2018-09-21T19:40:24.515Z,2.27
2018-09-21T19:42:54.511Z,3.00
2018-09-21T19:45:24.503Z,2.10
2018-09-21T19:47:54.154Z,3.00
2018-09-21T19:50:24.105Z,3.00
2018-09-21T19:52:53.765Z,2.73
2018-09-21T19:55:23.694Z,2.73
2018-09-21T19:57:53.871Z,2.40
2018-09-21T20:00:23.549Z,2.50
2018-09-21T20:02:54.007Z,2.53
2018-09-21T20:05:24.066Z,2.37
2018-09-21T20:07:54.187Z,2.10
2018-09-21T20:10:23.726Z,2.30
2018-09-21T20:12:53.475Z,2.73
2018-09-21T20:15:24.624Z,2.33
2018-09-21T20:17:54.374Z,2.37
2018-09-21T20:20:25.069Z,2.60
2018-09-21T20:22:55.276Z,2.43
2018-09-21T20:25:25.090Z,2.70
2018-09-21T20:27:54.985Z,2.40
2018-09-21T20:30:29.888Z,2.40
2018-09-21T20:33:04.596Z,2.20
2018-09-21T20:35:34.251Z,2.50
2018-09-21T20:38:10.039Z,2.60
2018-09-21T20:40:39.974Z,2.17
2018-09-21T20:43:09.719Z,2.30
2018-09-21T20:45:39.715Z,2.77
2018-09-21T20:48:09.717Z,2.43
2018-09-21T20:50:40.231Z,2.37
2018-09-21T20:53:09.933Z,3.00
2018-09-21T20:55:39.919Z,2.37
2018-09-21T20:58:10.629Z,2.80
2018-09-21T21:00:40.523Z,2.60
2018-09-21T21:03:10.250Z,2.40
2018-09-21T21:05:39.588Z,3.17
2018-09-21T21:08:09.460Z,3.23
2018-09-21T21:10:39.361Z,3.07
2018-09-21T21:13:09.333Z,3.50
2018-09-21T21:15:39.420Z,2.37
2018-09-21T21:18:09.239Z,3.13
2018-09-21T21:20:38.904Z,2.90
2018-09-21T21:23:08.955Z,3.27
2018-09-21T21:25:39.209Z,2.80
2018-09-21T21:28:08.622Z,2.67
2018-09-21T21:30:38.264Z,3.00
2018-09-21T21:33:07.755Z,3.10
2018-09-21T21:35:37.182Z,3.37
2018-09-21T21:38:07.243Z,3.43
2018-09-21T21:40:37.012Z,2.67
2018-09-21T21:43:06.696Z,3.17
2018-09-21T21:45:36.700Z,2.43
2018-09-21T21:48:06.483Z,2.97
2018-09-21T21:50:36.028Z,3.00
2018-09-21T21:53:05.834Z,2.60
2018-09-21T21:55:35.512Z,2.80
2018-09-21T21:58:05.617Z,3.13
2018-09-21T22:00:40.092Z,2.63
2018-09-21T22:03:09.673Z,3.07
2018-09-21T22:05:39.127Z,4.43
2018-09-21T22:08:08.556Z,3.80
2018-09-21T22:10:38.020Z,3.90
2018-09-21T22:13:12.496Z,2.80
2018-09-21T22:15:42.356Z,2.50
2018-09-21T22:18:11.759Z,2.67
2018-09-21T22:20:41.319Z,3.37
2018-09-21T22:23:10.649Z,2.60
2018-09-21T22:25:46.325Z,2.90
2018-09-21T22:28:16.242Z,2.50
2018-09-21T22:30:45.970Z,2.63
2018-09-21T22:33:15.415Z,3.00
2018-09-21T22:35:45.110Z,2.60
2018-09-21T22:38:14.566Z,2.73
2018-09-21T22:40:44.227Z,2.70
2018-09-21T22:43:14.082Z,2.73
2018-09-21T22:45:43.796Z,2.10
2018-09-21T22:48:13.672Z,3.00
2018-09-21T22:50:43.054Z,3.20
2018-09-21T22:53:12.427Z,2.60
2018-09-21T22:55:42.076Z,3.10
2018-09-21T22:58:11.733Z,3.70
2018-09-21T23:00:41.386Z,3.67
2018-09-21T23:03:11.136Z,3.87
2018-09-21T23:05:41.026Z,3.80
2018-09-21T23:08:10.574Z,4.00
2018-09-21T23:10:39.868Z,4.00
2018-09-21T23:13:09.565Z,4.10
2018-09-21T23:15:38.968Z,3.43
2018-09-21T23:18:08.743Z,2.90
2018-09-21T23:20:38.326Z,3.77
2018-09-21T23:23:08.452Z,3.67
2018-09-21T23:25:37.972Z,3.93
2018-09-21T23:28:08.328Z,4.10
2018-09-21T23:30:37.944Z,4.33
2018-09-21T23:33:07.593Z,3.30
2018-09-21T23:35:37.220Z,3.07
2018-09-21T23:38:06.700Z,2.87
2018-09-21T23:40:36.358Z,4.23
2018-09-21T23:43:06.194Z,4.63
2018-09-21T23:45:35.498Z,3.60
2018-09-21T23:48:04.963Z,3.63
2018-09-21T23:50:34.937Z,3.07
2018-09-21T23:53:04.390Z,3.67
2018-09-21T23:55:33.794Z,3.10
2018-09-21T23:58:03.526Z,2.40
